sensor_id;sensor_type;location;lat;lon;timestamp;P1;durP1;ratioP1;P2;durP2;ratioP2
74872;SDS011;68776;44.762;37.698;2023-05-07T07:27:59;2.95;;;1.08;;
74872;SDS011;68776;44.762;37.698;2023-05-07T07:30:53;4.93;;;1.67;;
74872;SDS011;68776;44.762;37.698;2023-05-07T07:31:54;6.75;;;2.35;;
74872;SDS011;68776;44.762;37.698;2023-05-07T07:32:55;5.88;;;2.15;;
74872;SDS011;68776;44.762;37.698;2023-05-07T07:34:02;9.90;;;3.70;;
74872;SDS011;68776;44.762;37.698;2023-05-07T07:35:03;14.98;;;2.90;;
74872;SDS011;68776;44.762;37.698;2023-05-07T07:36:05;10.15;;;2.80;;
74872;SDS011;68776;44.762;37.698;2023-05-07T07:37:07;3.30;;;1.40;;
74872;SDS011;68776;44.762;37.698;2023-05-07T07:38:10;5.03;;;1.88;;
74872;SDS011;68776;44.762;37.698;2023-05-07T07:39:11;8.23;;;3.38;;
74872;SDS011;68776;44.762;37.698;2023-05-07T07:40:13;7.90;;;2.20;;
74872;SDS011;68776;44.762;37.698;2023-05-07T07:41:15;4.35;;;1.90;;
74872;SDS011;68776;44.762;37.698;2023-05-07T07:42:16;7.03;;;1.75;;
74872;SDS011;68776;44.762;37.698;2023-05-07T07:43:17;5.23;;;2.00;;
74872;SDS011;68776;44.762;37.698;2023-05-07T07:44:18;7.17;;;1.80;;
74872;SDS011;68776;44.762;37.698;2023-05-07T07:45:24;3.75;;;1.23;;
74872;SDS011;68776;44.762;37.698;2023-05-07T07:46:26;9.25;;;2.50;;
74872;SDS011;68776;44.762;37.698;2023-05-07T07:47:28;4.75;;;1.52;;
74872;SDS011;68776;44.762;37.698;2023-05-07T07:48:29;2.77;;;1.00;;
74872;SDS011;68776;44.762;37.698;2023-05-07T07:49:30;5.10;;;1.67;;
74872;SDS011;68776;44.762;37.698;2023-05-07T07:50:34;3.63;;;1.20;;
74872;SDS011;68776;44.762;37.698;2023-05-07T07:51:35;2.30;;;0.80;;
74872;SDS011;68776;44.762;37.698;2023-05-07T07:52:36;4.30;;;1.27;;
74872;SDS011;68776;44.762;37.698;2023-05-07T07:53:38;3.13;;;1.23;;
74872;SDS011;68776;44.762;37.698;2023-05-07T07:54:39;2.75;;;0.98;;
74872;SDS011;68776;44.762;37.698;2023-05-07T07:55:41;2.97;;;1.13;;
74872;SDS011;68776;44.762;37.698;2023-05-07T07:56:44;5.05;;;1.27;;
74872;SDS011;68776;44.762;37.698;2023-05-07T07:57:47;6.55;;;1.02;;
74872;SDS011;68776;44.762;37.698;2023-05-07T07:58:48;3.45;;;0.90;;
74872;SDS011;68776;44.762;37.698;2023-05-07T07:59:49;3.28;;;1.23;;
74872;SDS011;68776;44.762;37.698;2023-05-07T08:00:50;3.30;;;1.23;;
74872;SDS011;68776;44.762;37.698;2023-05-07T08:01:51;6.90;;;1.48;;
74872;SDS011;68776;44.762;37.698;2023-05-07T08:02:56;4.33;;;1.60;;
74872;SDS011;68776;44.762;37.698;2023-05-07T08:04:02;4.80;;;1.23;;
74872;SDS011;68776;44.762;37.698;2023-05-07T08:05:05;4.30;;;1.27;;
74872;SDS011;68776;44.762;37.698;2023-05-07T08:06:06;4.53;;;1.45;;
74872;SDS011;68776;44.762;37.698;2023-05-07T08:07:09;3.42;;;1.25;;
74872;SDS011;68776;44.762;37.698;2023-05-07T08:08:14;3.60;;;1.33;;
74872;SDS011;68776;44.762;37.698;2023-05-07T08:09:17;2.92;;;1.17;;
74872;SDS011;68776;44.762;37.698;2023-05-07T08:10:19;10.70;;;1.15;;
74872;SDS011;68776;44.762;37.698;2023-05-07T08:11:27;3.80;;;1.35;;
74872;SDS011;68776;44.762;37.698;2023-05-07T08:12:29;4.40;;;1.25;;
74872;SDS011;68776;44.762;37.698;2023-05-07T08:13:30;3.88;;;1.20;;
74872;SDS011;68776;44.762;37.698;2023-05-07T08:14:33;12.10;;;1.48;;
74872;SDS011;68776;44.762;37.698;2023-05-07T08:15:35;3.58;;;1.30;;
74872;SDS011;68776;44.762;37.698;2023-05-07T08:16:36;6.60;;;1.75;;
74872;SDS011;68776;44.762;37.698;2023-05-07T08:17:37;5.68;;;1.25;;
74872;SDS011;68776;44.762;37.698;2023-05-07T08:18:38;7.13;;;1.33;;
74872;SDS011;68776;44.762;37.698;2023-05-07T08:19:39;5.00;;;1.70;;
74872;SDS011;68776;44.762;37.698;2023-05-07T08:20:43;6.03;;;1.92;;
74872;SDS011;68776;44.762;37.698;2023-05-07T08:21:49;6.22;;;1.70;;
74872;SDS011;68776;44.762;37.698;2023-05-07T08:22:51;9.67;;;1.47;;
74872;SDS011;68776;44.762;37.698;2023-05-07T08:23:52;5.50;;;1.58;;
74872;SDS011;68776;44.762;37.698;2023-05-07T08:24:53;3.22;;;1.02;;
74872;SDS011;68776;44.762;37.698;2023-05-07T08:25:54;6.45;;;1.58;;
74872;SDS011;68776;44.762;37.698;2023-05-07T08:26:56;3.20;;;1.10;;
74872;SDS011;68776;44.762;37.698;2023-05-07T08:27:57;4.88;;;1.27;;
74872;SDS011;68776;44.762;37.698;2023-05-07T08:28:58;10.55;;;1.70;;
74872;SDS011;68776;44.762;37.698;2023-05-07T08:29:59;6.70;;;1.50;;
74872;SDS011;68776;44.762;37.698;2023-05-07T08:31:01;10.13;;;2.20;;
74872;SDS011;68776;44.762;37.698;2023-05-07T08:32:06;6.10;;;2.28;;
74872;SDS011;68776;44.762;37.698;2023-05-07T08:33:08;5.72;;;2.03;;
74872;SDS011;68776;44.762;37.698;2023-05-07T08:34:10;4.72;;;1.73;;
74872;SDS011;68776;44.762;37.698;2023-05-07T08:35:14;5.90;;;2.22;;
74872;SDS011;68776;44.762;37.698;2023-05-07T08:36:15;20.20;;;2.25;;
74872;SDS011;68776;44.762;37.698;2023-05-07T08:37:16;6.68;;;1.92;;
74872;SDS011;68776;44.762;37.698;2023-05-07T08:38:17;7.13;;;2.20;;
74872;SDS011;68776;44.762;37.698;2023-05-07T08:39:18;5.28;;;2.10;;
74872;SDS011;68776;44.762;37.698;2023-05-07T08:40:25;4.50;;;1.42;;
74872;SDS011;68776;44.762;37.698;2023-05-07T08:41:28;6.95;;;2.13;;
74872;SDS011;68776;44.762;37.698;2023-05-07T08:42:30;7.35;;;2.65;;
74872;SDS011;68776;44.762;37.698;2023-05-07T08:43:33;5.90;;;1.92;;
74872;SDS011;68776;44.762;37.698;2023-05-07T08:44:38;15.30;;;2.53;;
74872;SDS011;68776;44.762;37.698;2023-05-07T08:45:41;9.57;;;2.35;;
74872;SDS011;68776;44.762;37.698;2023-05-07T08:46:45;5.53;;;1.83;;
74872;SDS011;68776;44.762;37.698;2023-05-07T08:47:51;6.55;;;2.47;;
74872;SDS011;68776;44.762;37.698;2023-05-07T08:48:57;4.75;;;1.73;;
74872;SDS011;68776;44.762;37.698;2023-05-07T08:49:59;7.15;;;2.10;;
74872;SDS011;68776;44.762;37.698;2023-05-07T08:51:00;6.65;;;2.28;;
74872;SDS011;68776;44.762;37.698;2023-05-07T08:52:01;6.53;;;2.88;;
74872;SDS011;68776;44.762;37.698;2023-05-07T08:53:03;9.43;;;2.33;;
74872;SDS011;68776;44.762;37.698;2023-05-07T08:54:05;12.27;;;2.65;;
74872;SDS011;68776;44.762;37.698;2023-05-07T08:55:07;5.90;;;2.58;;
74872;SDS011;68776;44.762;37.698;2023-05-07T08:56:09;7.22;;;2.97;;
74872;SDS011;68776;44.762;37.698;2023-05-07T08:57:11;6.22;;;2.88;;
74872;SDS011;68776;44.762;37.698;2023-05-07T08:58:12;8.75;;;3.35;;
74872;SDS011;68776;44.762;37.698;2023-05-07T08:59:14;7.38;;;2.65;;
74872;SDS011;68776;44.762;37.698;2023-05-07T09:00:16;7.93;;;3.08;;
74872;SDS011;68776;44.762;37.698;2023-05-07T09:01:19;7.60;;;2.83;;
74872;SDS011;68776;44.762;37.698;2023-05-07T09:02:24;5.50;;;1.90;;
74872;SDS011;68776;44.762;37.698;2023-05-07T09:03:26;10.60;;;2.90;;
74872;SDS011;68776;44.762;37.698;2023-05-07T09:04:29;12.38;;;4.30;;
74872;SDS011;68776;44.762;37.698;2023-05-07T09:05:32;13.15;;;3.28;;
74872;SDS011;68776;44.762;37.698;2023-05-07T09:06:33;7.85;;;3.75;;
74872;SDS011;68776;44.762;37.698;2023-05-07T09:07:35;8.65;;;2.80;;
74872;SDS011;68776;44.762;37.698;2023-05-07T09:08:38;12.13;;;2.83;;
74872;SDS011;68776;44.762;37.698;2023-05-07T09:09:41;8.77;;;2.25;;
74872;SDS011;68776;44.762;37.698;2023-05-07T09:10:44;9.75;;;2.83;;
74872;SDS011;68776;44.762;37.698;2023-05-07T09:11:45;10.15;;;3.03;;
74872;SDS011;68776;44.762;37.698;2023-05-07T09:12:48;10.20;;;3.15;;
74872;SDS011;68776;44.762;37.698;2023-05-07T09:13:56;6.65;;;2.58;;
74872;SDS011;68776;44.762;37.698;2023-05-07T09:15:03;9.57;;;3.03;;
74872;SDS011;68776;44.762;37.698;2023-05-07T09:16:09;6.45;;;2.30;;
74872;SDS011;68776;44.762;37.698;2023-05-07T09:17:13;5.50;;;2.22;;
74872;SDS011;68776;44.762;37.698;2023-05-07T09:18:15;6.55;;;1.95;;
74872;SDS011;68776;44.762;37.698;2023-05-07T09:19:16;16.65;;;1.80;;
74872;SDS011;68776;44.762;37.698;2023-05-07T09:20:23;7.50;;;2.83;;
74872;SDS011;68776;44.762;37.698;2023-05-07T09:21:25;6.70;;;2.47;;
74872;SDS011;68776;44.762;37.698;2023-05-07T09:22:29;5.93;;;2.00;;
74872;SDS011;68776;44.762;37.698;2023-05-07T09:23:36;4.47;;;1.70;;
74872;SDS011;68776;44.762;37.698;2023-05-07T09:24:37;5.22;;;2.00;;
74872;SDS011;68776;44.762;37.698;2023-05-07T09:25:43;7.00;;;2.35;;
74872;SDS011;68776;44.762;37.698;2023-05-07T09:26:51;7.00;;;1.95;;
74872;SDS011;68776;44.762;37.698;2023-05-07T09:27:52;6.53;;;1.95;;
74872;SDS011;68776;44.762;37.698;2023-05-07T09:28:53;5.28;;;1.80;;
74872;SDS011;68776;44.762;37.698;2023-05-07T09:29:54;6.30;;;1.50;;
74872;SDS011;68776;44.762;37.698;2023-05-07T09:30:55;4.57;;;1.50;;
74872;SDS011;68776;44.762;37.698;2023-05-07T09:31:56;6.60;;;1.67;;
74872;SDS011;68776;44.762;37.698;2023-05-07T09:32:58;5.05;;;1.77;;
74872;SDS011;68776;44.762;37.698;2023-05-07T09:34:00;5.93;;;1.40;;
74872;SDS011;68776;44.762;37.698;2023-05-07T09:35:04;5.60;;;1.85;;
74872;SDS011;68776;44.762;37.698;2023-05-07T09:36:06;5.13;;;1.70;;
74872;SDS011;68776;44.762;37.698;2023-05-07T09:37:10;6.47;;;1.55;;
74872;SDS011;68776;44.762;37.698;2023-05-07T09:38:13;3.88;;;1.70;;
74872;SDS011;68776;44.762;37.698;2023-05-07T09:39:14;6.28;;;1.63;;
74872;SDS011;68776;44.762;37.698;2023-05-07T09:40:22;6.90;;;1.85;;
74872;SDS011;68776;44.762;37.698;2023-05-07T09:41:24;6.57;;;1.40;;
74872;SDS011;68776;44.762;37.698;2023-05-07T09:42:48;7.97;;;2.10;;
74872;SDS011;68776;44.762;37.698;2023-05-07T09:43:53;4.63;;;1.90;;
74872;SDS011;68776;44.762;37.698;2023-05-07T09:44:57;5.97;;;2.38;;
74872;SDS011;68776;44.762;37.698;2023-05-07T09:46:08;5.72;;;1.60;;
74872;SDS011;68776;44.762;37.698;2023-05-07T09:47:15;7.25;;;2.35;;
74872;SDS011;68776;44.762;37.698;2023-05-07T09:48:21;6.20;;;2.15;;
74872;SDS011;68776;44.762;37.698;2023-05-07T09:49:24;6.15;;;2.20;;
74872;SDS011;68776;44.762;37.698;2023-05-07T09:50:45;5.57;;;2.10;;
74872;SDS011;68776;44.762;37.698;2023-05-07T09:51:51;4.13;;;1.43;;
74872;SDS011;68776;44.762;37.698;2023-05-07T09:52:56;8.15;;;2.28;;
74872;SDS011;68776;44.762;37.698;2023-05-07T09:53:59;4.55;;;1.65;;
74872;SDS011;68776;44.762;37.698;2023-05-07T09:55:05;4.80;;;1.98;;
74872;SDS011;68776;44.762;37.698;2023-05-07T09:56:09;8.18;;;2.20;;
74872;SDS011;68776;44.762;37.698;2023-05-07T09:57:11;6.53;;;1.63;;
74872;SDS011;68776;44.762;37.698;2023-05-07T09:58:15;7.50;;;2.22;;
74872;SDS011;68776;44.762;37.698;2023-05-07T09:59:19;7.90;;;1.67;;
74872;SDS011;68776;44.762;37.698;2023-05-07T10:00:22;6.28;;;1.50;;
74872;SDS011;68776;44.762;37.698;2023-05-07T10:01:32;5.45;;;1.27;;
74872;SDS011;68776;44.762;37.698;2023-05-07T10:02:37;7.80;;;1.85;;
74872;SDS011;68776;44.762;37.698;2023-05-07T10:03:46;7.00;;;2.17;;
74872;SDS011;68776;44.762;37.698;2023-05-07T10:04:48;7.53;;;1.70;;
74872;SDS011;68776;44.762;37.698;2023-05-07T10:05:54;6.25;;;1.90;;
74872;SDS011;68776;44.762;37.698;2023-05-07T10:06:56;7.18;;;2.13;;
74872;SDS011;68776;44.762;37.698;2023-05-07T10:07:59;7.60;;;1.85;;
74872;SDS011;68776;44.762;37.698;2023-05-07T10:09:04;5.30;;;2.10;;
74872;SDS011;68776;44.762;37.698;2023-05-07T10:10:06;6.10;;;1.38;;
74872;SDS011;68776;44.762;37.698;2023-05-07T10:11:12;6.47;;;1.80;;
74872;SDS011;68776;44.762;37.698;2023-05-07T10:12:15;6.93;;;1.58;;
74872;SDS011;68776;44.762;37.698;2023-05-07T10:13:18;5.78;;;1.70;;
74872;SDS011;68776;44.762;37.698;2023-05-07T10:14:23;5.60;;;1.90;;
74872;SDS011;68776;44.762;37.698;2023-05-07T10:15:25;7.57;;;1.90;;
74872;SDS011;68776;44.762;37.698;2023-05-07T10:16:31;6.60;;;2.17;;
74872;SDS011;68776;44.762;37.698;2023-05-07T10:17:36;4.75;;;1.85;;
74872;SDS011;68776;44.762;37.698;2023-05-07T10:18:42;6.65;;;2.55;;
74872;SDS011;68776;44.762;37.698;2023-05-07T10:19:49;7.93;;;2.00;;
74872;SDS011;68776;44.762;37.698;2023-05-07T10:20:53;4.03;;;1.60;;
74872;SDS011;68776;44.762;37.698;2023-05-07T10:21:59;6.32;;;2.53;;
74872;SDS011;68776;44.762;37.698;2023-05-07T10:23:07;7.45;;;2.35;;
74872;SDS011;68776;44.762;37.698;2023-05-07T10:24:19;4.57;;;1.70;;
74872;SDS011;68776;44.762;37.698;2023-05-07T10:25:30;7.60;;;2.22;;
74872;SDS011;68776;44.762;37.698;2023-05-07T10:26:36;3.90;;;1.55;;
74872;SDS011;68776;44.762;37.698;2023-05-07T10:27:38;9.57;;;2.93;;
74872;SDS011;68776;44.762;37.698;2023-05-07T10:28:42;5.28;;;1.67;;
74872;SDS011;68776;44.762;37.698;2023-05-07T10:30:07;4.03;;;1.80;;
74872;SDS011;68776;44.762;37.698;2023-05-07T10:31:33;4.72;;;1.75;;
74872;SDS011;68776;44.762;37.698;2023-05-07T10:32:45;6.03;;;2.03;;
74872;SDS011;68776;44.762;37.698;2023-05-07T10:33:58;5.03;;;1.75;;
74872;SDS011;68776;44.762;37.698;2023-05-07T10:35:02;5.05;;;1.80;;
74872;SDS011;68776;44.762;37.698;2023-05-07T10:36:05;5.95;;;2.38;;
74872;SDS011;68776;44.762;37.698;2023-05-07T10:37:08;6.63;;;2.28;;
74872;SDS011;68776;44.762;37.698;2023-05-07T10:38:11;9.13;;;2.47;;
74872;SDS011;68776;44.762;37.698;2023-05-07T10:39:14;9.55;;;2.22;;
74872;SDS011;68776;44.762;37.698;2023-05-07T10:40:15;7.32;;;2.88;;
74872;SDS011;68776;44.762;37.698;2023-05-07T10:41:18;5.40;;;2.35;;
74872;SDS011;68776;44.762;37.698;2023-05-07T10:42:21;6.13;;;2.10;;
74872;SDS011;68776;44.762;37.698;2023-05-07T10:43:37;4.97;;;1.47;;
74872;SDS011;68776;44.762;37.698;2023-05-07T10:44:43;6.28;;;1.73;;
74872;SDS011;68776;44.762;37.698;2023-05-07T10:47:17;4.82;;;1.50;;
74872;SDS011;68776;44.762;37.698;2023-05-07T10:48:22;5.33;;;1.67;;
74872;SDS011;68776;44.762;37.698;2023-05-07T10:49:28;7.78;;;2.60;;
74872;SDS011;68776;44.762;37.698;2023-05-07T10:50:34;6.85;;;2.83;;
74872;SDS011;68776;44.762;37.698;2023-05-07T10:51:38;4.28;;;1.67;;
74872;SDS011;68776;44.762;37.698;2023-05-07T10:53:12;7.32;;;3.38;;
74872;SDS011;68776;44.762;37.698;2023-05-07T10:54:31;8.32;;;2.20;;
74872;SDS011;68776;44.762;37.698;2023-05-07T10:55:40;5.95;;;1.92;;
74872;SDS011;68776;44.762;37.698;2023-05-07T10:56:49;5.95;;;2.42;;
74872;SDS011;68776;44.762;37.698;2023-05-07T10:57:56;5.28;;;1.95;;
74872;SDS011;68776;44.762;37.698;2023-05-07T10:59:29;5.50;;;1.85;;
74872;SDS011;68776;44.762;37.698;2023-05-07T11:03:10;5.78;;;1.90;;
74872;SDS011;68776;44.762;37.698;2023-05-07T11:04:26;6.30;;;2.05;;
74872;SDS011;68776;44.762;37.698;2023-05-07T11:05:37;7.93;;;2.22;;
74872;SDS011;68776;44.762;37.698;2023-05-07T11:08:08;6.30;;;2.30;;
74872;SDS011;68776;44.762;37.698;2023-05-07T11:09:20;7.47;;;2.10;;
74872;SDS011;68776;44.762;37.698;2023-05-07T11:10:47;10.85;;;1.75;;
74872;SDS011;68776;44.762;37.698;2023-05-07T11:13:43;5.82;;;2.13;;
74872;SDS011;68776;44.762;37.698;2023-05-07T11:14:54;5.90;;;2.13;;
74872;SDS011;68776;44.762;37.698;2023-05-07T11:16:05;5.88;;;2.17;;
74872;SDS011;68776;44.762;37.698;2023-05-07T11:17:25;5.30;;;2.10;;
74872;SDS011;68776;44.762;37.698;2023-05-07T11:18:47;6.72;;;2.20;;
74872;SDS011;68776;44.762;37.698;2023-05-07T11:19:53;7.40;;;2.60;;
74872;SDS011;68776;44.762;37.698;2023-05-07T11:22:49;8.98;;;2.92;;
74872;SDS011;68776;44.762;37.698;2023-05-07T11:24:13;7.73;;;2.90;;
74872;SDS011;68776;44.762;37.698;2023-05-07T11:25:27;5.85;;;2.17;;
74872;SDS011;68776;44.762;37.698;2023-05-07T11:26:44;8.27;;;2.53;;
74872;SDS011;68776;44.762;37.698;2023-05-07T11:27:45;6.50;;;2.40;;
74872;SDS011;68776;44.762;37.698;2023-05-07T11:28:47;4.25;;;1.67;;
74872;SDS011;68776;44.762;37.698;2023-05-07T11:29:48;6.35;;;2.00;;
74872;SDS011;68776;44.762;37.698;2023-05-07T11:30:51;7.03;;;2.45;;
74872;SDS011;68776;44.762;37.698;2023-05-07T11:31:54;6.95;;;2.65;;
74872;SDS011;68776;44.762;37.698;2023-05-07T11:32:58;9.25;;;2.38;;
74872;SDS011;68776;44.762;37.698;2023-05-07T11:33:59;6.97;;;1.95;;
74872;SDS011;68776;44.762;37.698;2023-05-07T11:35:01;5.50;;;1.65;;
74872;SDS011;68776;44.762;37.698;2023-05-07T11:36:02;7.32;;;1.85;;
74872;SDS011;68776;44.762;37.698;2023-05-07T11:37:09;7.07;;;2.55;;
74872;SDS011;68776;44.762;37.698;2023-05-07T11:38:19;6.65;;;2.50;;
74872;SDS011;68776;44.762;37.698;2023-05-07T11:39:27;7.18;;;2.88;;
74872;SDS011;68776;44.762;37.698;2023-05-07T11:40:33;7.90;;;2.42;;
74872;SDS011;68776;44.762;37.698;2023-05-07T11:41:34;7.13;;;2.05;;
74872;SDS011;68776;44.762;37.698;2023-05-07T11:42:37;8.27;;;2.28;;
74872;SDS011;68776;44.762;37.698;2023-05-07T11:43:53;10.77;;;2.78;;
74872;SDS011;68776;44.762;37.698;2023-05-07T11:44:58;8.52;;;2.25;;
74872;SDS011;68776;44.762;37.698;2023-05-07T11:46:05;7.88;;;2.70;;
74872;SDS011;68776;44.762;37.698;2023-05-07T11:47:09;5.20;;;1.75;;
74872;SDS011;68776;44.762;37.698;2023-05-07T11:48:11;5.32;;;2.13;;
74872;SDS011;68776;44.762;37.698;2023-05-07T11:49:13;6.05;;;2.30;;
74872;SDS011;68776;44.762;37.698;2023-05-07T11:50:14;6.43;;;2.42;;
74872;SDS011;68776;44.762;37.698;2023-05-07T11:51:18;7.60;;;2.37;;
74872;SDS011;68776;44.762;37.698;2023-05-07T11:52:23;6.22;;;2.75;;
74872;SDS011;68776;44.762;37.698;2023-05-07T11:53:25;13.15;;;2.33;;
74872;SDS011;68776;44.762;37.698;2023-05-07T11:54:34;7.40;;;2.55;;
74872;SDS011;68776;44.762;37.698;2023-05-07T11:55:36;9.75;;;2.33;;
74872;SDS011;68776;44.762;37.698;2023-05-07T11:56:37;6.15;;;2.22;;
74872;SDS011;68776;44.762;37.698;2023-05-07T11:57:39;5.43;;;1.90;;
74872;SDS011;68776;44.762;37.698;2023-05-07T11:58:40;5.50;;;1.92;;
74872;SDS011;68776;44.762;37.698;2023-05-07T11:59:42;8.45;;;1.85;;
74872;SDS011;68776;44.762;37.698;2023-05-07T12:00:50;9.57;;;2.33;;
74872;SDS011;68776;44.762;37.698;2023-05-07T12:01:52;6.10;;;2.33;;
74872;SDS011;68776;44.762;37.698;2023-05-07T12:03:02;6.30;;;1.98;;
74872;SDS011;68776;44.762;37.698;2023-05-07T12:04:04;7.05;;;1.83;;
74872;SDS011;68776;44.762;37.698;2023-05-07T12:05:05;9.55;;;2.13;;
74872;SDS011;68776;44.762;37.698;2023-05-07T12:06:06;6.22;;;2.40;;
74872;SDS011;68776;44.762;37.698;2023-05-07T12:07:11;9.20;;;2.72;;
74872;SDS011;68776;44.762;37.698;2023-05-07T12:08:16;11.85;;;2.55;;
74872;SDS011;68776;44.762;37.698;2023-05-07T12:09:19;5.93;;;1.90;;
74872;SDS011;68776;44.762;37.698;2023-05-07T12:10:20;5.60;;;2.15;;
74872;SDS011;68776;44.762;37.698;2023-05-07T12:11:24;10.80;;;3.03;;
74872;SDS011;68776;44.762;37.698;2023-05-07T12:12:28;10.18;;;2.20;;
74872;SDS011;68776;44.762;37.698;2023-05-07T12:13:30;12.18;;;3.75;;
74872;SDS011;68776;44.762;37.698;2023-05-07T12:14:31;6.70;;;2.40;;
74872;SDS011;68776;44.762;37.698;2023-05-07T12:15:34;10.43;;;3.40;;
74872;SDS011;68776;44.762;37.698;2023-05-07T12:16:36;8.50;;;2.78;;
74872;SDS011;68776;44.762;37.698;2023-05-07T12:17:37;6.97;;;2.67;;
74872;SDS011;68776;44.762;37.698;2023-05-07T12:18:38;7.10;;;2.50;;
74872;SDS011;68776;44.762;37.698;2023-05-07T12:19:41;7.47;;;2.58;;
74872;SDS011;68776;44.762;37.698;2023-05-07T12:20:44;6.28;;;2.15;;
74872;SDS011;68776;44.762;37.698;2023-05-07T12:21:45;4.83;;;1.77;;
74872;SDS011;68776;44.762;37.698;2023-05-07T12:22:47;6.93;;;2.30;;
74872;SDS011;68776;44.762;37.698;2023-05-07T12:23:50;6.97;;;2.35;;
74872;SDS011;68776;44.762;37.698;2023-05-07T12:24:57;7.70;;;2.28;;
74872;SDS011;68776;44.762;37.698;2023-05-07T12:26:01;8.45;;;2.63;;
74872;SDS011;68776;44.762;37.698;2023-05-07T12:27:04;7.93;;;1.90;;
74872;SDS011;68776;44.762;37.698;2023-05-07T12:28:05;5.57;;;2.58;;
74872;SDS011;68776;44.762;37.698;2023-05-07T12:29:07;5.55;;;2.33;;
74872;SDS011;68776;44.762;37.698;2023-05-07T12:30:09;6.85;;;2.63;;
74872;SDS011;68776;44.762;37.698;2023-05-07T12:31:11;6.22;;;2.65;;
74872;SDS011;68776;44.762;37.698;2023-05-07T12:32:18;7.80;;;2.63;;
74872;SDS011;68776;44.762;37.698;2023-05-07T12:33:24;8.55;;;3.08;;
74872;SDS011;68776;44.762;37.698;2023-05-07T12:34:26;8.15;;;2.75;;
74872;SDS011;68776;44.762;37.698;2023-05-07T12:35:28;8.43;;;2.92;;
74872;SDS011;68776;44.762;37.698;2023-05-07T12:36:39;6.57;;;2.70;;
74872;SDS011;68776;44.762;37.698;2023-05-07T12:37:41;11.20;;;3.10;;
74872;SDS011;68776;44.762;37.698;2023-05-07T12:38:45;10.43;;;2.92;;
74872;SDS011;68776;44.762;37.698;2023-05-07T12:40:03;8.73;;;3.05;;
74872;SDS011;68776;44.762;37.698;2023-05-07T12:41:13;7.00;;;2.33;;
74872;SDS011;68776;44.762;37.698;2023-05-07T12:42:19;6.47;;;3.05;;
74872;SDS011;68776;44.762;37.698;2023-05-07T12:43:27;8.18;;;2.90;;
74872;SDS011;68776;44.762;37.698;2023-05-07T12:44:30;6.97;;;2.67;;
74872;SDS011;68776;44.762;37.698;2023-05-07T12:45:41;6.85;;;2.55;;
74872;SDS011;68776;44.762;37.698;2023-05-07T12:46:43;6.65;;;2.40;;
74872;SDS011;68776;44.762;37.698;2023-05-07T12:47:44;7.00;;;2.70;;
74872;SDS011;68776;44.762;37.698;2023-05-07T12:48:48;7.45;;;3.20;;
74872;SDS011;68776;44.762;37.698;2023-05-07T12:49:49;7.88;;;2.45;;
74872;SDS011;68776;44.762;37.698;2023-05-07T12:50:50;9.93;;;2.67;;
74872;SDS011;68776;44.762;37.698;2023-05-07T12:51:53;13.55;;;2.58;;
74872;SDS011;68776;44.762;37.698;2023-05-07T12:52:54;6.67;;;2.67;;
74872;SDS011;68776;44.762;37.698;2023-05-07T12:53:56;11.10;;;3.53;;
74872;SDS011;68776;44.762;37.698;2023-05-07T12:54:57;7.20;;;2.88;;
74872;SDS011;68776;44.762;37.698;2023-05-07T12:56:06;7.75;;;2.65;;
74872;SDS011;68776;44.762;37.698;2023-05-07T12:57:08;5.72;;;2.38;;
74872;SDS011;68776;44.762;37.698;2023-05-07T12:58:16;11.82;;;2.95;;
74872;SDS011;68776;44.762;37.698;2023-05-07T12:59:19;9.93;;;2.92;;
74872;SDS011;68776;44.762;37.698;2023-05-07T13:00:33;8.85;;;2.70;;
74872;SDS011;68776;44.762;37.698;2023-05-07T13:01:35;12.15;;;3.95;;
74872;SDS011;68776;44.762;37.698;2023-05-07T13:02:40;9.80;;;4.07;;
74872;SDS011;68776;44.762;37.698;2023-05-07T13:03:47;8.32;;;2.83;;
74872;SDS011;68776;44.762;37.698;2023-05-07T13:04:50;9.57;;;3.40;;
74872;SDS011;68776;44.762;37.698;2023-05-07T13:05:51;9.55;;;2.72;;
74872;SDS011;68776;44.762;37.698;2023-05-07T13:06:53;8.77;;;3.33;;
74872;SDS011;68776;44.762;37.698;2023-05-07T13:07:55;7.57;;;2.75;;
74872;SDS011;68776;44.762;37.698;2023-05-07T13:08:56;8.23;;;2.60;;
74872;SDS011;68776;44.762;37.698;2023-05-07T13:09:57;6.93;;;2.67;;
74872;SDS011;68776;44.762;37.698;2023-05-07T13:10:58;7.47;;;1.97;;
74872;SDS011;68776;44.762;37.698;2023-05-07T13:12:03;6.47;;;2.70;;
74872;SDS011;68776;44.762;37.698;2023-05-07T13:13:05;11.45;;;3.08;;
74872;SDS011;68776;44.762;37.698;2023-05-07T13:14:05;8.73;;;2.75;;
74872;SDS011;68776;44.762;37.698;2023-05-07T13:15:06;7.80;;;2.50;;
74872;SDS011;68776;44.762;37.698;2023-05-07T13:16:08;5.68;;;2.00;;
74872;SDS011;68776;44.762;37.698;2023-05-07T13:17:11;10.10;;;2.40;;
74872;SDS011;68776;44.762;37.698;2023-05-07T13:18:12;5.50;;;2.00;;
74872;SDS011;68776;44.762;37.698;2023-05-07T13:19:13;6.05;;;1.90;;
74872;SDS011;68776;44.762;37.698;2023-05-07T13:20:14;6.80;;;3.17;;
74872;SDS011;68776;44.762;37.698;2023-05-07T13:21:15;8.23;;;3.30;;
74872;SDS011;68776;44.762;37.698;2023-05-07T13:22:16;11.60;;;3.17;;
74872;SDS011;68776;44.762;37.698;2023-05-07T13:23:17;10.27;;;2.80;;
74872;SDS011;68776;44.762;37.698;2023-05-07T13:24:18;8.97;;;3.20;;
74872;SDS011;68776;44.762;37.698;2023-05-07T13:25:20;7.18;;;3.03;;
74872;SDS011;68776;44.762;37.698;2023-05-07T13:26:21;11.02;;;3.17;;
74872;SDS011;68776;44.762;37.698;2023-05-07T13:27:22;8.68;;;3.40;;
74872;SDS011;68776;44.762;37.698;2023-05-07T13:28:23;8.07;;;2.93;;
74872;SDS011;68776;44.762;37.698;2023-05-07T13:29:24;7.75;;;3.22;;
74872;SDS011;68776;44.762;37.698;2023-05-07T13:30:30;15.27;;;4.57;;
74872;SDS011;68776;44.762;37.698;2023-05-07T13:31:31;9.35;;;3.00;;
74872;SDS011;68776;44.762;37.698;2023-05-07T13:32:32;7.57;;;2.45;;
74872;SDS011;68776;44.762;37.698;2023-05-07T13:33:33;7.10;;;2.05;;
74872;SDS011;68776;44.762;37.698;2023-05-07T13:34:34;6.00;;;1.70;;
74872;SDS011;68776;44.762;37.698;2023-05-07T13:35:35;9.15;;;2.55;;
74872;SDS011;68776;44.762;37.698;2023-05-07T13:36:36;6.85;;;2.08;;
74872;SDS011;68776;44.762;37.698;2023-05-07T13:37:40;6.77;;;2.03;;
74872;SDS011;68776;44.762;37.698;2023-05-07T13:38:41;6.35;;;2.22;;
74872;SDS011;68776;44.762;37.698;2023-05-07T13:39:42;6.18;;;2.28;;
74872;SDS011;68776;44.762;37.698;2023-05-07T13:40:43;7.20;;;2.13;;
74872;SDS011;68776;44.762;37.698;2023-05-07T13:41:44;6.07;;;2.08;;
74872;SDS011;68776;44.762;37.698;2023-05-07T13:42:45;8.27;;;2.40;;
74872;SDS011;68776;44.762;37.698;2023-05-07T13:43:46;8.05;;;2.70;;
74872;SDS011;68776;44.762;37.698;2023-05-07T13:44:47;10.13;;;2.53;;
74872;SDS011;68776;44.762;37.698;2023-05-07T13:45:48;6.72;;;2.25;;
74872;SDS011;68776;44.762;37.698;2023-05-07T13:46:49;5.50;;;2.42;;
74872;SDS011;68776;44.762;37.698;2023-05-07T13:47:50;6.30;;;2.90;;
74872;SDS011;68776;44.762;37.698;2023-05-07T13:48:51;9.40;;;3.03;;
74872;SDS011;68776;44.762;37.698;2023-05-07T13:49:52;5.63;;;2.10;;
74872;SDS011;68776;44.762;37.698;2023-05-07T13:50:53;6.47;;;2.17;;
74872;SDS011;68776;44.762;37.698;2023-05-07T13:51:54;5.90;;;2.22;;
74872;SDS011;68776;44.762;37.698;2023-05-07T13:52:56;7.20;;;2.25;;
74872;SDS011;68776;44.762;37.698;2023-05-07T13:53:57;10.77;;;2.17;;
74872;SDS011;68776;44.762;37.698;2023-05-07T13:54:58;10.82;;;2.25;;
74872;SDS011;68776;44.762;37.698;2023-05-07T13:55:59;7.80;;;1.90;;
74872;SDS011;68776;44.762;37.698;2023-05-07T13:57:00;14.63;;;2.42;;
74872;SDS011;68776;44.762;37.698;2023-05-07T13:58:02;7.00;;;2.25;;
74872;SDS011;68776;44.762;37.698;2023-05-07T13:59:03;7.82;;;2.42;;